Terminal Aerodrome Forecast
Issued by NWS Brownsville, TX

Home | Current Version | Previous Version | Text Only | Print | Product List | Glossary On
Versions: 1 2 3 4 5 6 7 8 9 10 11 12 13 14 15 16 17 18 19 20 21 22
000
FTUS44 KBRO 172300 RRA
TAFHRL
TAF
KHRL 172344Z 1800/1824 15010KT P6SM SCT020 BKN250
     FM180600 15008KT P6SM BKN015
     FM181200 14005KT 5SM BR BKN007
     FM181400 18012KT P6SM OVC020
     FM182100 17015KT P6SM VCSH OVC050=

USA.gov is the U.S. government's official web portal to all federal, state and local government web resources and services.